createdAt,value
2022-12-11T00:02:12.180Z,1.98
2022-12-11T00:04:38.964Z,1.80
2022-12-11T00:07:05.857Z,1.85
2022-12-11T00:09:32.626Z,2.30
2022-12-11T00:11:59.330Z,3.88
2022-12-11T00:14:25.972Z,3.15
2022-12-11T00:16:52.673Z,1.60
2022-12-11T00:19:19.714Z,2.10
2022-12-11T00:21:46.451Z,1.80
2022-12-11T00:24:13.088Z,1.73
2022-12-11T00:26:39.997Z,1.50
2022-12-11T00:29:08.340Z,1.90
2022-12-11T00:31:35.497Z,1.63
2022-12-11T00:34:02.862Z,1.38
2022-12-11T00:36:29.551Z,3.00
2022-12-11T00:38:56.309Z,3.00
2022-12-11T00:41:23.057Z,1.95
2022-12-11T00:43:49.746Z,1.63
2022-12-11T00:46:16.964Z,2.10
2022-12-11T00:48:43.670Z,1.98
2022-12-11T00:51:11.213Z,2.00
2022-12-11T00:53:38.965Z,2.70
2022-12-11T00:56:17.786Z,4.60
2022-12-11T00:58:46.444Z,1.58
2022-12-11T01:01:16.902Z,1.95
2022-12-11T01:03:43.901Z,1.60
2022-12-11T01:06:15.491Z,1.70
2022-12-11T01:08:43.096Z,2.08
2022-12-11T01:11:12.797Z,1.90
2022-12-11T01:13:40.704Z,1.85
2022-12-11T01:16:16.127Z,1.92
2022-12-11T01:18:43.025Z,1.60
2022-12-11T01:21:12.392Z,1.80
2022-12-11T01:23:40.065Z,1.80
2022-12-11T01:26:14.898Z,2.20
2022-12-11T01:28:45.335Z,1.75
2022-12-11T01:31:13.957Z,2.00
2022-12-11T01:33:41.139Z,1.67
2022-12-11T01:36:19.503Z,1.83
2022-12-11T01:38:48.269Z,2.63
2022-12-11T01:41:15.832Z,2.15
2022-12-11T01:44:08.754Z,1.88
2022-12-11T01:46:36.913Z,1.92
2022-12-11T01:49:08.099Z,1.52
2022-12-11T01:51:43.840Z,3.10
2022-12-11T01:54:13.378Z,2.30
2022-12-11T01:56:43.851Z,2.72
2022-12-11T01:59:11.289Z,2.17
2022-12-11T02:01:45.234Z,2.05
2022-12-11T02:04:14.321Z,1.60
2022-12-11T02:06:44.288Z,2.25
2022-12-11T02:09:33.057Z,1.80
2022-12-11T02:12:07.272Z,2.50
2022-12-11T02:14:55.720Z,2.20
2022-12-11T02:17:26.620Z,1.95
2022-12-11T02:19:56.235Z,1.92
2022-12-11T02:22:44.838Z,1.90
2022-12-11T02:25:23.068Z,1.70
2022-12-11T02:28:04.819Z,1.70
2022-12-11T02:30:37.160Z,1.73
2022-12-11T02:33:03.902Z,2.30
2022-12-11T02:35:45.593Z,1.60
2022-12-11T02:38:21.357Z,1.67
2022-12-11T02:40:51.985Z,1.60
2022-12-11T02:43:20.319Z,1.83
2022-12-11T02:45:48.405Z,1.88
2022-12-11T02:48:17.180Z,1.65
2022-12-11T02:50:49.201Z,1.85
2022-12-11T02:53:19.977Z,1.98
2022-12-11T02:55:50.290Z,1.90
2022-12-11T02:58:31.107Z,1.70
2022-12-11T03:00:57.859Z,1.58
2022-12-11T03:03:25.910Z,2.28
2022-12-11T03:05:53.500Z,2.25
2022-12-11T03:08:20.197Z,1.90
2022-12-11T03:10:46.949Z,1.58
2022-12-11T03:13:18.737Z,2.72
2022-12-11T03:15:48.121Z,1.75
2022-12-11T03:18:36.580Z,1.60
2022-12-11T03:21:12.250Z,1.73
2022-12-11T03:23:54.978Z,2.13
2022-12-11T03:26:23.526Z,1.88
2022-12-11T03:28:59.079Z,2.13
2022-12-11T03:31:39.106Z,1.77
2022-12-11T03:34:16.990Z,2.10
2022-12-11T03:36:44.728Z,2.28
2022-12-11T03:39:19.106Z,2.00
2022-12-11T03:41:48.841Z,2.25
2022-12-11T03:44:16.874Z,2.33
2022-12-11T03:46:46.296Z,2.42
2022-12-11T03:49:20.490Z,1.88
2022-12-11T03:51:50.385Z,1.95
2022-12-11T03:54:18.089Z,1.98
2022-12-11T03:56:46.740Z,1.98
2022-12-11T03:59:13.557Z,1.75
2022-12-11T04:01:40.324Z,3.17
2022-12-11T04:04:07.014Z,1.98
2022-12-11T04:06:33.745Z,2.15
2022-12-11T04:09:00.371Z,1.90
2022-12-11T04:11:36.045Z,1.67
2022-12-11T04:14:29.681Z,1.85
2022-12-11T04:19:42.819Z,1.50
2022-12-11T04:22:34.288Z,2.85
2022-12-11T04:25:02.618Z,2.13
2022-12-11T04:27:48.109Z,1.80
2022-12-11T04:30:21.660Z,2.00
2022-12-11T04:32:48.837Z,1.98
2022-12-11T04:35:16.037Z,1.70
2022-12-11T04:37:42.954Z,1.73
2022-12-11T04:40:14.241Z,2.25
2022-12-11T04:42:41.383Z,2.20
2022-12-11T04:45:09.638Z,2.10
2022-12-11T04:47:38.038Z,1.88
2022-12-11T04:50:07.458Z,2.10
2022-12-11T04:52:34.270Z,2.25
2022-12-11T04:55:01.021Z,2.20
2022-12-11T04:57:28.230Z,2.00
2022-12-11T04:59:54.873Z,1.95
2022-12-11T05:02:21.579Z,1.83
2022-12-11T05:04:48.320Z,2.55
2022-12-11T05:07:14.985Z,1.70
2022-12-11T05:09:41.732Z,2.70
2022-12-11T05:12:08.346Z,2.50
2022-12-11T05:14:34.988Z,2.17
2022-12-11T05:17:01.663Z,2.20
2022-12-11T05:19:28.362Z,2.40
2022-12-11T05:21:55.017Z,2.33
2022-12-11T05:24:21.687Z,1.90
2022-12-11T05:26:48.514Z,2.15
2022-12-11T05:29:15.156Z,1.77
2022-12-11T05:31:41.854Z,2.10
2022-12-11T05:34:08.683Z,1.85
2022-12-11T05:36:35.587Z,1.88
2022-12-11T05:39:03.767Z,2.50
2022-12-11T05:41:32.634Z,1.63
2022-12-11T05:43:59.848Z,2.25
2022-12-11T05:46:28.902Z,2.28
2022-12-11T05:48:59.270Z,2.17
2022-12-11T05:51:27.445Z,2.10
2022-12-11T05:53:55.650Z,1.45
2022-12-11T05:56:28.075Z,2.08
2022-12-11T05:58:55.956Z,1.83
2022-12-11T06:01:26.979Z,2.45
2022-12-11T06:03:54.780Z,1.75
2022-12-11T06:06:21.561Z,2.25
2022-12-11T06:08:52.765Z,2.30
2022-12-11T06:11:23.925Z,1.73
2022-12-11T06:13:51.704Z,1.73
2022-12-11T06:16:18.514Z,1.60
2022-12-11T06:18:46.061Z,1.67
2022-12-11T06:21:22.630Z,1.73
2022-12-11T06:23:51.447Z,1.42
2022-12-11T06:26:19.590Z,1.52
2022-12-11T06:28:47.058Z,1.40
2022-12-11T06:31:14.183Z,1.98
2022-12-11T06:33:43.103Z,1.90
2022-12-11T06:36:13.460Z,1.50
2022-12-11T06:38:40.321Z,2.10
2022-12-11T06:41:08.733Z,1.90
2022-12-11T06:43:37.137Z,1.60
2022-12-11T06:46:08.592Z,1.63
2022-12-11T06:48:35.342Z,1.63
2022-12-11T06:51:06.967Z,1.83
2022-12-11T06:53:34.184Z,1.98
2022-12-11T06:56:13.249Z,1.92
2022-12-11T06:58:45.401Z,1.80
2022-12-11T07:01:26.630Z,2.22
2022-12-11T07:07:02.899Z,1.90
2022-12-11T07:09:29.582Z,1.77
2022-12-11T07:11:56.279Z,1.92
2022-12-11T07:14:23.054Z,2.03
2022-12-11T07:16:49.942Z,1.70
2022-12-11T07:19:16.875Z,1.80
2022-12-11T07:21:43.607Z,1.92
2022-12-11T07:24:10.426Z,1.63
2022-12-11T07:26:37.132Z,1.90
2022-12-11T07:29:03.840Z,1.83
2022-12-11T07:31:30.936Z,2.53
2022-12-11T07:34:03.305Z,2.15
2022-12-11T07:36:34.295Z,1.80
2022-12-11T07:39:01.560Z,2.13
2022-12-11T07:41:29.019Z,1.75
2022-12-11T07:43:56.151Z,1.52
2022-12-11T07:46:25.358Z,3.30
2022-12-11T07:48:52.152Z,1.83
2022-12-11T07:51:18.789Z,1.80
2022-12-11T07:53:49.775Z,1.90
2022-12-11T07:56:17.861Z,2.53
2022-12-11T07:58:45.263Z,1.85
2022-12-11T08:01:17.855Z,1.83
2022-12-11T08:03:44.913Z,1.92
2022-12-11T08:06:11.953Z,2.92
2022-12-11T08:08:39.451Z,2.15
2022-12-11T08:11:08.140Z,1.73
2022-12-11T08:13:34.959Z,1.77
2022-12-11T08:16:11.023Z,2.40
2022-12-11T08:18:38.082Z,1.70
2022-12-11T08:21:10.214Z,2.05
2022-12-11T08:23:36.995Z,1.83
2022-12-11T08:26:08.956Z,2.03
2022-12-11T08:28:35.958Z,2.55
2022-12-11T08:31:08.268Z,2.67
2022-12-11T08:33:36.745Z,2.03
2022-12-11T08:36:08.544Z,1.80
2022-12-11T08:38:36.151Z,2.05
2022-12-11T08:41:14.592Z,2.05
2022-12-11T08:43:42.410Z,1.83
2022-12-11T08:46:11.692Z,1.60
2022-12-11T08:48:40.788Z,1.80
2022-12-11T08:51:12.046Z,1.60
2022-12-11T08:53:39.876Z,2.00
2022-12-11T08:56:13.740Z,1.50
2022-12-11T09:01:27.463Z,1.42
2022-12-11T09:03:58.073Z,1.50
2022-12-11T09:33:36.367Z,2.20
2022-12-11T11:09:06.361Z,2.33
2022-12-11T11:19:49.645Z,1.95
2022-12-11T11:22:20.843Z,1.50
2022-12-11T11:24:55.452Z,1.65
2022-12-11T11:27:44.375Z,1.70
2022-12-11T11:30:22.286Z,1.75
2022-12-11T11:32:52.752Z,2.03
2022-12-11T11:35:23.644Z,1.48
2022-12-11T11:38:17.829Z,1.95
2022-12-11T11:41:04.829Z,1.90
2022-12-11T11:43:43.511Z,1.98
2022-12-11T11:46:13.015Z,1.83
2022-12-11T11:48:46.062Z,1.48
2022-12-11T11:51:19.660Z,1.73
2022-12-11T11:53:52.338Z,1.70
2022-12-11T11:56:46.528Z,2.10
2022-12-11T11:59:39.377Z,2.58
2022-12-11T12:02:16.052Z,1.50
2022-12-11T12:04:44.228Z,1.70
2022-12-11T12:07:38.205Z,1.55
2022-12-11T12:10:26.600Z,1.67
2022-12-11T12:13:49.640Z,2.00
2022-12-11T12:16:53.571Z,2.22
2022-12-11T12:22:02.791Z,1.50
2022-12-11T12:24:44.957Z,1.50
2022-12-11T12:27:53.871Z,1.80
2022-12-11T12:30:23.401Z,1.63
2022-12-11T12:33:34.232Z,1.60
2022-12-11T12:36:17.470Z,1.60
2022-12-11T12:38:47.119Z,1.50
2022-12-11T12:41:30.880Z,1.60
2022-12-11T12:44:15.100Z,1.40
2022-12-11T12:47:05.346Z,1.98
2022-12-11T12:49:49.619Z,1.50
2022-12-11T12:52:21.010Z,1.50
2022-12-11T12:55:11.615Z,1.33
2022-12-11T12:57:40.604Z,1.80
2022-12-11T13:00:13.029Z,1.77
2022-12-11T13:02:51.078Z,1.60
2022-12-11T13:05:27.771Z,1.73
2022-12-11T13:08:02.683Z,2.13
2022-12-11T13:10:35.892Z,1.55
2022-12-11T13:15:40.852Z,1.58
2022-12-11T13:18:35.660Z,1.73
2022-12-11T13:21:22.970Z,1.40
2022-12-11T13:23:49.761Z,1.55
2022-12-11T13:26:29.614Z,1.40
2022-12-11T13:28:58.285Z,1.48
2022-12-11T13:31:34.443Z,1.38
2022-12-11T13:34:15.438Z,1.48
2022-12-11T13:36:48.878Z,1.20
2022-12-11T13:39:29.576Z,1.55
2022-12-11T13:42:02.990Z,1.40
2022-12-11T13:44:33.670Z,1.60
2022-12-11T13:47:03.226Z,1.70
2022-12-11T13:49:39.885Z,1.63
2022-12-11T13:52:07.649Z,1.48
2022-12-11T13:54:39.070Z,1.50
2022-12-11T13:57:08.803Z,1.50
2022-12-11T13:59:38.026Z,1.38
2022-12-11T14:02:15.443Z,1.50
2022-12-11T14:04:42.882Z,1.60
2022-12-11T14:07:11.039Z,1.52
2022-12-11T14:09:43.528Z,1.80
2022-12-11T14:12:20.047Z,1.50
2022-12-11T14:14:58.664Z,1.45
2022-12-11T14:17:29.362Z,1.50
2022-12-11T14:20:00.058Z,1.65
2022-12-11T14:22:29.342Z,1.40
2022-12-11T14:24:58.380Z,1.60
2022-12-11T14:27:26.440Z,1.50
2022-12-11T14:29:53.863Z,1.65
2022-12-11T14:32:37.446Z,1.30
2022-12-11T14:35:11.109Z,1.40
2022-12-11T14:37:38.110Z,1.90
2022-12-11T14:40:14.582Z,1.60
2022-12-11T14:43:08.974Z,1.48
2022-12-11T14:45:47.010Z,1.85
2022-12-11T14:48:22.287Z,1.40
2022-12-11T14:50:53.695Z,1.55
2022-12-11T14:53:24.895Z,1.40
2022-12-11T14:55:52.972Z,1.40
2022-12-11T14:58:26.793Z,1.33
2022-12-11T15:01:05.452Z,1.60
2022-12-11T15:03:35.349Z,2.00
2022-12-11T15:06:04.158Z,1.60
2022-12-11T15:08:33.445Z,1.65
2022-12-11T15:11:16.099Z,1.77
2022-12-11T15:13:59.007Z,1.80
2022-12-11T15:16:28.320Z,2.80
2022-12-11T15:18:56.593Z,3.13
2022-12-11T15:21:32.167Z,2.55
2022-12-11T15:24:01.570Z,2.78
2022-12-11T15:26:46.567Z,2.13
2022-12-11T15:29:38.826Z,2.33
2022-12-11T15:32:08.632Z,2.20
2022-12-11T15:34:43.499Z,2.72
2022-12-11T15:37:28.755Z,2.78
2022-12-11T15:39:57.392Z,2.65
2022-12-11T15:42:30.577Z,3.35
2022-12-11T15:47:27.142Z,2.65
2022-12-11T15:50:16.808Z,3.10
2022-12-11T15:52:44.479Z,3.78
2022-12-11T15:55:11.835Z,3.97
2022-12-11T15:57:45.018Z,3.33
2022-12-11T16:00:16.453Z,3.35
2022-12-11T16:02:43.354Z,3.20
2022-12-11T16:05:10.459Z,4.55
2022-12-11T16:07:37.706Z,4.10
2022-12-11T16:10:05.617Z,3.33
2022-12-11T16:12:32.614Z,2.75
2022-12-11T16:14:59.297Z,2.55
2022-12-11T16:17:25.986Z,2.55
2022-12-11T16:19:54.250Z,2.53
2022-12-11T16:22:20.970Z,2.45
2022-12-11T16:24:47.734Z,2.10
2022-12-11T16:27:18.601Z,2.53
2022-12-11T16:29:51.482Z,2.50
2022-12-11T16:32:20.703Z,3.22
2022-12-11T16:34:47.530Z,2.63
2022-12-11T16:37:17.739Z,2.63
2022-12-11T16:39:46.115Z,2.90
2022-12-11T16:42:12.958Z,2.65
2022-12-11T16:44:43.948Z,2.15
2022-12-11T16:47:11.012Z,2.72
2022-12-11T16:49:37.710Z,2.38
2022-12-11T16:52:07.847Z,3.03
2022-12-11T16:54:34.773Z,2.17
2022-12-11T16:57:04.688Z,4.03
2022-12-11T16:59:37.073Z,4.97
2022-12-11T17:02:04.298Z,4.50
2022-12-11T17:04:31.127Z,4.40
2022-12-11T17:06:57.841Z,4.70
2022-12-11T17:09:24.819Z,5.53
2022-12-11T17:11:54.728Z,4.53
2022-12-11T17:14:24.470Z,5.05
2022-12-11T17:16:51.276Z,5.82
2022-12-11T17:19:21.021Z,4.40
2022-12-11T17:21:51.514Z,4.63
2022-12-11T17:24:18.842Z,4.07
2022-12-11T17:26:51.961Z,4.55
2022-12-11T17:31:46.747Z,4.72
2022-12-11T17:34:16.348Z,7.60
2022-12-11T17:36:43.357Z,10.52
2022-12-11T17:39:13.979Z,5.28
2022-12-11T17:41:40.935Z,6.60
2022-12-11T17:44:11.071Z,6.43
2022-12-11T17:46:41.150Z,5.25
2022-12-11T17:49:07.890Z,5.95
2022-12-11T17:51:35.167Z,5.45
2022-12-11T17:54:02.015Z,5.97
2022-12-11T17:56:28.764Z,6.00
2022-12-11T17:58:55.629Z,6.55
2022-12-11T18:01:22.619Z,6.65
2022-12-11T18:03:49.438Z,5.85
2022-12-11T18:06:19.397Z,5.70
2022-12-11T18:08:46.398Z,5.50
2022-12-11T18:11:16.428Z,5.18
2022-12-11T18:13:46.105Z,5.15
2022-12-11T18:16:25.753Z,5.28
2022-12-11T18:18:54.602Z,4.40
2022-12-11T18:21:27.735Z,5.63
2022-12-11T18:26:25.232Z,5.00
2022-12-11T18:28:53.245Z,6.22
2022-12-11T18:31:21.270Z,6.60
2022-12-11T18:33:48.720Z,6.40
2022-12-11T18:36:18.457Z,6.70
2022-12-11T18:38:45.338Z,7.40
2022-12-11T18:41:13.515Z,6.57
2022-12-11T18:43:41.014Z,5.15
2022-12-11T18:46:10.003Z,4.40
2022-12-11T18:48:36.976Z,4.57
2022-12-11T18:51:11.383Z,4.25
2022-12-11T18:53:41.389Z,3.53
2022-12-11T18:56:13.784Z,3.83
2022-12-11T18:58:40.709Z,3.72
2022-12-11T19:01:22.720Z,2.85
2022-12-11T19:03:51.444Z,3.30
2022-12-11T19:06:21.588Z,5.45
2022-12-11T19:08:48.435Z,6.18
2022-12-11T19:11:21.346Z,4.45
2022-12-11T19:13:49.269Z,4.80
2022-12-11T19:16:24.846Z,3.55
2022-12-11T19:18:52.427Z,4.28
2022-12-11T19:21:19.171Z,4.70
2022-12-11T19:23:46.593Z,4.10
2022-12-11T19:26:16.302Z,3.67
2022-12-11T19:28:43.303Z,3.50
2022-12-11T19:31:12.613Z,3.60
2022-12-11T19:33:40.528Z,3.88
2022-12-11T19:36:12.344Z,5.35
2022-12-11T19:38:41.009Z,3.55
2022-12-11T19:41:09.867Z,4.05
2022-12-11T19:43:36.901Z,5.43
2022-12-11T19:46:05.555Z,4.57
2022-12-11T19:48:32.646Z,4.40
2022-12-11T19:51:07.136Z,5.03
2022-12-11T19:53:34.508Z,3.72
2022-12-11T19:56:01.501Z,5.65
2022-12-11T19:58:28.386Z,3.90
2022-12-11T20:00:55.126Z,4.32
2022-12-11T20:03:22.119Z,4.55
2022-12-11T20:05:49.184Z,3.47
2022-12-11T20:08:42.873Z,3.25
2022-12-11T20:11:09.602Z,3.40
2022-12-11T20:13:41.077Z,2.92
2022-12-11T20:16:09.333Z,2.90
2022-12-11T20:18:37.082Z,2.55
2022-12-11T20:21:10.157Z,2.88
2022-12-11T20:26:08.004Z,2.70
2022-12-11T20:28:35.344Z,2.10
2022-12-11T20:31:07.513Z,2.80
2022-12-11T20:33:34.551Z,1.73
2022-12-11T20:36:01.330Z,5.38
2022-12-11T20:38:34.085Z,3.88
2022-12-11T20:43:27.820Z,4.72
2022-12-11T20:45:54.505Z,3.90
2022-12-11T20:48:21.181Z,3.60
2022-12-11T20:50:47.891Z,3.88
2022-12-11T20:53:14.786Z,5.45
2022-12-11T20:55:42.555Z,3.83
2022-12-11T20:58:09.525Z,4.57
2022-12-11T21:00:40.342Z,5.15
2022-12-11T21:03:07.056Z,5.43
2022-12-11T21:05:33.775Z,4.80
2022-12-11T21:08:00.532Z,5.35
2022-12-11T21:10:27.213Z,6.32
2022-12-11T21:12:53.969Z,7.60
2022-12-11T21:15:20.614Z,7.72
2022-12-11T21:17:47.501Z,5.60
2022-12-11T21:20:14.390Z,6.03
2022-12-11T21:22:41.082Z,5.55
2022-12-11T21:25:08.085Z,5.60
2022-12-11T21:27:34.860Z,4.22
2022-12-11T21:30:01.769Z,4.28
2022-12-11T21:32:30.120Z,6.75
2022-12-11T21:34:58.680Z,7.78
2022-12-11T21:37:25.536Z,5.53
2022-12-11T21:39:56.235Z,5.55
2022-12-11T21:42:23.648Z,6.20
2022-12-11T21:45:37.490Z,4.30
2022-12-11T21:47:36.976Z,3.47
2022-12-11T21:50:04.488Z,3.47
2022-12-11T21:52:31.175Z,3.15
2022-12-11T21:54:57.887Z,3.47
2022-12-11T21:57:26.706Z,3.47
2022-12-11T21:59:53.694Z,3.72
2022-12-11T22:02:20.430Z,3.00
2022-12-11T22:04:47.602Z,3.60
2022-12-11T22:07:15.542Z,3.60
2022-12-11T22:09:43.057Z,5.00
2022-12-11T22:12:29.890Z,3.80
2022-12-11T22:14:57.090Z,3.30
2022-12-11T22:17:24.163Z,3.50
2022-12-11T22:19:52.073Z,3.50
2022-12-11T22:22:19.476Z,2.58
2022-12-11T22:24:46.296Z,3.00
2022-12-11T22:27:13.073Z,2.40
2022-12-11T22:29:39.860Z,2.60
2022-12-11T22:32:06.566Z,3.17
2022-12-11T22:34:33.192Z,2.75
2022-12-11T22:36:59.827Z,2.92
2022-12-11T22:39:26.463Z,2.63
2022-12-11T22:41:53.265Z,2.40
2022-12-11T22:44:21.688Z,2.58
2022-12-11T22:46:50.561Z,2.70
2022-12-11T22:49:19.617Z,3.63
2022-12-11T22:51:46.381Z,3.00
2022-12-11T22:54:13.201Z,2.97
2022-12-11T22:56:39.910Z,3.50
2022-12-11T22:59:07.703Z,3.67
2022-12-11T23:01:34.660Z,3.42
2022-12-11T23:04:01.326Z,2.88
2022-12-11T23:06:28.095Z,2.83
2022-12-11T23:08:58.734Z,2.33
2022-12-11T23:11:31.772Z,2.90
2022-12-11T23:13:58.908Z,3.42
2022-12-11T23:16:26.624Z,2.30
2022-12-11T23:18:54.795Z,3.35
2022-12-11T23:21:21.970Z,3.08
2022-12-11T23:23:49.480Z,3.10
2022-12-11T23:26:18.812Z,2.80
2022-12-11T23:28:46.159Z,2.45
2022-12-11T23:31:13.752Z,2.20
2022-12-11T23:33:40.716Z,3.00
2022-12-11T23:36:08.099Z,3.15
2022-12-11T23:38:35.094Z,2.80
2022-12-11T23:41:04.345Z,2.40
2022-12-11T23:43:31.429Z,3.10
2022-12-11T23:45:58.197Z,2.45
2022-12-11T23:48:24.952Z,2.78
2022-12-11T23:50:52.001Z,2.33
2022-12-11T23:53:18.723Z,3.85
2022-12-11T23:55:45.877Z,3.83
2022-12-11T23:58:12.973Z,3.08
